Aviation Digital Data Service (ADDS)

Output produced by METARs form (1814 UTC 25 April 2015)
found at http://aviationweather.gov/adds/metars/
 
KPBG 251730Z 2518/2618 33009KT P6SM OVC045 
     FM252300 30005KT P6SM BKN090 
     FM261500 36006KT P6SM VCSH BKN040